Главная страница
METAR-TAF:

METAR-TAF

Аэропорты :

Зонгулдак, Турция

широта: 41-27N, долгота: 031-48E, высота над уровнем моря: 136 м

Текущие метеонаблюдения

Эта сводка был подготовлена 1 час и 15 минут назад, в 05:50 UTC
Ветер 4 Узел от восточно-северо-восточный, изменяющийся между северо-восточный и восточно-юго-восточный
Температура 23°C
Влажность 89%
Давление 1011 hPa
Видимость: 8000 м
Отдельные облака на высоте 2300 фута
Рассеянная облачность на высоте 10000 фута

METAR: LTAS 270550Z 07004KT 040V110 8000 SCT023 BKN100 23/21 Q1011

Время: 10:05 (07:05 UTC)

Прогноз

Эта сводка был подготовлена 2 часа и 25 минут назад, в 04:40 UTC
Прогноз действительный с 27-го 06 UTC до 27-го 15 UTC
Ветер 2 Узел переменных направлений
Видимость 10 км и более
Отдельные облака на высоте 4000 фута

TAF: LTAS 270440Z 2706/2715 VRB02KT 9999 SCT040

Метеонаблюдения и прогнозы для более 4000 аэропортов (сводки METAR и TAF).

Имеющиеся станции представлены на карте желтыми и красными точками.

Чтобы увидеть название станции, наведите на нее мышь.

Затем щелкните, чтобы увидеть метеонаблюдения и метеопрогнозы.

Управление картой: чтобы увеличить масштаб, щелкните зеленые кнопки с черным крестиком; чтобы уменьшить масштаб, щелкните зеленую кнопку с тире; для просмотра соседних карт щелкайте зеленые стрелки.


METAR-TAF: